Pilot Vessel Akarana — ZMT2938 — position and weather

sailwx.info

Track history (hours):
 
Tides and Currents Weather Stations Pressure Air Temp Water Temp Dewpoint Dewpoint Depression Visibility Wind Speed Wind Dir Waves Ship Positions

Pilot Vessel Akarana

Last reported at 2015-Jul-04 20:24 UTC. Time now 2015-Jul-04 20:42 UTC.
Position S 36°51' E 174°47'.

Length 15 m; draft 1.6 m.

Type: Pilot. MMSI: 512000344.

Date/timePositionNaut miles runAvg speedWind from/ knotsBaromVisibWave heightAir tempDewpointWater temp
2015-Jul-04 20:24S 36°51' E 174°47'1 0.2
2015-Jul-04 12:34S 36°50' E 174°49'1 1.4
2015-Jul-04 11:33S 36°51' E 174°47'0 0.0
2015-Jul-04 10:33S 36°51' E 174°47'2 2.4
2015-Jul-04 09:33S 36°49' E 174°49'2 2.3
2015-Jul-04 08:31S 36°51' E 174°47'0 0.0
2015-Jul-04 04:17S 36°51' E 174°47'4 5.7
2015-Jul-04 03:33S 36°47' E 174°48'1 0.7
2015-Jul-04 02:34S 36°46' E 174°49'2 2.2
2015-Jul-04 01:34S 36°44' E 174°50'7 6.2
2015-Jul-04 00:30S 36°51' E 174°47'1 0.5
2015-Jul-03 22:33S 36°51' E 174°48'1 1.2
2015-Jul-03 21:33S 36°50' E 174°47'0 0.1
2015-Jul-03 16:04S 36°51' E 174°47'3 6.6
2015-Jul-03 15:33S 36°48' E 174°49'3 1.1
2015-Jul-03 12:33S 36°51' E 174°47'5 2.4
2015-Jul-03 10:34S 36°46' E 174°50'5 0.5
2015-Jul-03 01:19S 36°51' E 174°47'0 0.0
2015-Jul-03 00:27S 36°51' E 174°47'0 0.0
2015-Jul-02 23:25S 36°51' E 174°47'0 0.0
2015-Jul-02 22:33S 36°51' E 174°47'0 0.0
2015-Jul-02 21:33S 36°51' E 174°47'0 0.0
2015-Jul-02 20:33S 36°51' E 174°47'0 0.0
2015-Jul-02 19:17S 36°51' E 174°47'0 0.0
2015-Jul-02 18:32S 36°51' E 174°47'0 0.0
2015-Jul-02 17:23S 36°51' E 174°47'0 0.0
2015-Jul-02 12:15S 36°51' E 174°47'0 0.0
2015-Jul-02 00:18S 36°50' E 174°47'4 5.8
2015-Jul-01 23:33S 36°46' E 174°49'5 4.2
2015-Jul-01 22:26S 36°51' E 174°47'0 0.0
2015-Jul-01 21:30S 36°51' E 174°47'0 0.0
2015-Jul-01 19:17S 36°51' E 174°47'5 1.0
2015-Jul-01 14:33S 36°46' E 174°49'4 3.6
2015-Jul-01 13:33S 36°50' E 174°49'2 1.7
2015-Jul-01 12:30S 36°51' E 174°47'0 0.0
2015-Jul-01 11:33S 36°51' E 174°47'0 0.0
2015-Jul-01 10:32S 36°51' E 174°47'3 3.1
2015-Jul-01 09:33S 36°48' E 174°49'3 1.5
2015-Jul-01 07:31S 36°51' E 174°47'0 0.0
2015-Jul-01 06:33S 36°51' E 174°47'0 0.0
2015-Jul-01 05:31S 36°51' E 174°47'0 0.0
2015-Jul-01 04:32S 36°51' E 174°47'0 0.0
2015-Jul-01 03:19S 36°51' E 174°47'0 0.0
2015-Jul-01 02:28S 36°51' E 174°47'0 0.5
2015-Jul-01 01:33S 36°50' E 174°47'4 0.7
2015-Jun-30 19:33S 36°46' E 174°48'4 3.8
2015-Jun-30 18:24S 36°51' E 174°47'2 0.2
2015-Jun-30 07:34S 36°49' E 174°49'5 4.8
2015-Jun-30 06:33S 36°45' E 174°50'4 3.6
2015-Jun-30 05:33S 36°48' E 174°48'3 2.9
2015-Jun-30 04:33S 36°51' E 174°47'0 0.0
2015-Jun-30 03:33S 36°51' E 174°47'0 0.2
2015-Jun-30 02:33S 36°51' E 174°47'0 0.1
2015-Jun-30 01:23S 36°51' E 174°47'0 0.0
2015-Jun-30 00:31S 36°51' E 174°47'1 0.8
2015-Jun-29 23:09S 36°50' E 174°46'1 1.7
2015-Jun-29 22:33S 36°51' E 174°47'0 0.0
2015-Jun-29 21:30S 36°51' E 174°47'0 0.0
2015-Jun-29 20:33S 36°51' E 174°47'0 0.0
2015-Jun-29 19:33S 36°51' E 174°47'0 0.0
2015-Jun-29 18:33S 36°51' E 174°47'4 4.1
2015-Jun-29 17:34S 36°47' E 174°49'4 4.1
2015-Jun-29 16:34S 36°51' E 174°47'3 0.3
2015-Jun-29 07:34S 36°49' E 174°49'1 0.5
2015-Jun-29 06:33S 36°49' E 174°49'2 2.1
2015-Jun-29 05:33S 36°51' E 174°47'2 2.1
2015-Jun-29 04:33S 36°49' E 174°49'2 1.8
2015-Jun-29 03:25S 36°51' E 174°47'0 0.0
2015-Jun-29 02:32S 36°51' E 174°47'0 0.0
2015-Jun-29 01:33S 36°51' E 174°47'0 0.0
2015-Jun-29 00:32S 36°51' E 174°47'0 0.0
2015-Jun-28 23:06S 36°51' E 174°47'0 0.0
2015-Jun-28 22:29S 36°51' E 174°47'0 0.0
2015-Jun-28 21:34S 36°51' E 174°47'0 0.0
2015-Jun-28 20:33S 36°51' E 174°47'0 0.0
2015-Jun-28 19:32S 36°51' E 174°47'0 0.0
2015-Jun-28 18:33S 36°51' E 174°47'0 0.0
2015-Jun-28 17:32S 36°51' E 174°47'0 0.3
2015-Jun-28 16:33S 36°50' E 174°47'4 0.5
2015-Jun-28 09:24S 36°47' E 174°49'4 4.5
2015-Jun-28 08:32S 36°51' E 174°47'0 0.0
2015-Jun-28 07:33S 36°51' E 174°47'0 0.0
2015-Jun-28 06:33S 36°51' E 174°47'0 0.0
2015-Jun-28 05:33S 36°51' E 174°47'0 0.0
2015-Jun-28 04:33S 36°51' E 174°47'0 0.0
2015-Jun-28 03:33S 36°51' E 174°47'0 0.0
2015-Jun-28 02:33S 36°51' E 174°47'0 0.0
2015-Jun-28 01:31S 36°51' E 174°47'0 0.0
2015-Jun-28 00:33S 36°51' E 174°47'0 0.0
2015-Jun-27 23:22S 36°51' E 174°47'2 2.6
2015-Jun-27 22:34S 36°49' E 174°49'2 1.8
2015-Jun-27 21:33S 36°50' E 174°47'3 3.0
2015-Jun-27 20:34S 36°48' E 174°49'3 0.5
2015-Jun-27 13:04S 36°51' E 174°47'4 7.5
2015-Jun-27 12:34S 36°47' E 174°48'4 3.8
2015-Jun-27 11:33S 36°51' E 174°47'2 2.0
2015-Jun-27 10:34S 36°50' E 174°49'2 1.9
2015-Jun-27 09:33S 36°51' E 174°47'0 0.2
2015-Jun-27 08:30S 36°50' E 174°47'0 0.3
2015-Jun-27 07:32S 36°51' E 174°47'4 2.2
2015-Jun-27 05:33S 36°46' E 174°49'3 2.8
2015-Jun-27 04:34S 36°49' E 174°49'4 3.8
2015-Jun-27 03:33S 36°46' E 174°50'6 5.5
2015-Jun-27 02:32S 36°51' E 174°47'0 0.0
2015-Jun-27 01:33S 36°51' E 174°47'0 0.0
2015-Jun-27 00:29S 36°51' E 174°47'1 1.2
2015-Jun-26 23:30S 36°51' E 174°48'1 1.3
2015-Jun-26 22:33S 36°51' E 174°47'6 5.6
2015-Jun-26 21:34S 36°46' E 174°50'5 4.6
2015-Jun-26 20:33S 36°49' E 174°55'7 6.7
2015-Jun-26 19:33S 36°51' E 174°47'0 0.0
2015-Jun-26 18:32S 36°51' E 174°47'0 0.0
2015-Jun-26 17:33S 36°51' E 174°47'0 0.0
2015-Jun-26 16:33S 36°51' E 174°47'0 0.0
2015-Jun-26 15:33S 36°51' E 174°47'0 0.0
2015-Jun-26 14:32S 36°51' E 174°47'1 0.6
2015-Jun-26 13:34S 36°50' E 174°47'3 2.6
2015-Jun-26 12:34S 36°48' E 174°49'3 3.1
2015-Jun-26 11:33S 36°51' E 174°47'4 4.1
2015-Jun-26 10:33S 36°47' E 174°49'2 2.3
2015-Jun-26 09:34S 36°45' E 174°50'6 5.3
2015-Jun-26 08:21S 36°51' E 174°47'0 0.0
2015-Jun-26 07:33S 36°51' E 174°47'2 2.2
2015-Jun-26 06:33S 36°49' E 174°49'2 2.2
2015-Jun-26 05:33S 36°51' E 174°47'0 0.0
2015-Jun-26 04:33S 36°51' E 174°47'0 0.0
2015-Jun-26 03:31S 36°51' E 174°47'0 0.0
2015-Jun-26 02:33S 36°51' E 174°47'0 0.0
2015-Jun-26 01:33S 36°51' E 174°47'0 0.0
2015-Jun-25 23:24S 36°51' E 174°47'0 0.4
2015-Jun-25 22:30S 36°50' E 174°47'4 4.7
2015-Jun-25 21:33S 36°46' E 174°49'0 0.4
2015-Jun-25 20:34S 36°46' E 174°49'5 4.8
2015-Jun-25 19:33S 36°51' E 174°47'1 0.5
2015-Jun-25 17:33S 36°50' E 174°48'2 0.3
2015-Jun-25 10:33S 36°48' E 174°49'3 2.7
2015-Jun-25 09:31S 36°51' E 174°47'6 6.4
2015-Jun-25 08:33S 36°45' E 174°50'5 5.0
2015-Jun-25 07:33S 36°50' E 174°49'3 0.8
2015-Jun-25 03:33S 36°47' E 174°49'4 4.2
2015-Jun-25 02:33S 36°51' E 174°47'0 0.0
2015-Jun-25 01:33S 36°51' E 174°47'0 0.0
2015-Jun-25 00:33S 36°51' E 174°47'0 0.0
2015-Jun-24 23:31S 36°51' E 174°47'1 0.9
2015-Jun-24 22:14S 36°51' E 174°48'1 1.8
2015-Jun-24 21:33S 36°51' E 174°47'7 7.5
2015-Jun-24 20:33S 36°48' E 174°56'  
Track history (hours):
 
Tides and Currents Weather Stations Pressure Air Temp Water Temp Dewpoint Dewpoint Depression Visibility Wind Speed Wind Dir Waves Ship Positions

Pilot Vessel Akarana

Last reported at 2015-Jul-04 20:24 UTC. Time now 2015-Jul-04 20:42 UTC.
Position S 36°51' E 174°47'.

Length 15 m; draft 1.6 m.

Type: Pilot. MMSI: 512000344.

Date/timePositionNaut miles runAvg speedWind from/ knotsBaromVisibWave heightAir tempDewpointWater temp
2015-Jul-04 20:24S 36°51' E 174°47'1 0.2
2015-Jul-04 12:34S 36°50' E 174°49'1 1.4
2015-Jul-04 11:33S 36°51' E 174°47'0 0.0
2015-Jul-04 10:33S 36°51' E 174°47'2 2.4
2015-Jul-04 09:33S 36°49' E 174°49'2 2.3
2015-Jul-04 08:31S 36°51' E 174°47'0 0.0
2015-Jul-04 04:17S 36°51' E 174°47'4 5.7
2015-Jul-04 03:33S 36°47' E 174°48'1 0.7
2015-Jul-04 02:34S 36°46' E 174°49'2 2.2
2015-Jul-04 01:34S 36°44' E 174°50'7 6.2
2015-Jul-04 00:30S 36°51' E 174°47'1 0.5
2015-Jul-03 22:33S 36°51' E 174°48'1 1.2
2015-Jul-03 21:33S 36°50' E 174°47'0 0.1
2015-Jul-03 16:04S 36°51' E 174°47'3 6.6
2015-Jul-03 15:33S 36°48' E 174°49'3 1.1
2015-Jul-03 12:33S 36°51' E 174°47'5 2.4
2015-Jul-03 10:34S 36°46' E 174°50'5 0.5
2015-Jul-03 01:19S 36°51' E 174°47'0 0.0
2015-Jul-03 00:27S 36°51' E 174°47'0 0.0
2015-Jul-02 23:25S 36°51' E 174°47'0 0.0
2015-Jul-02 22:33S 36°51' E 174°47'0 0.0
2015-Jul-02 21:33S 36°51' E 174°47'0 0.0
2015-Jul-02 20:33S 36°51' E 174°47'0 0.0
2015-Jul-02 19:17S 36°51' E 174°47'0 0.0
2015-Jul-02 18:32S 36°51' E 174°47'0 0.0
2015-Jul-02 17:23S 36°51' E 174°47'0 0.0
2015-Jul-02 12:15S 36°51' E 174°47'0 0.0
2015-Jul-02 00:18S 36°50' E 174°47'4 5.8
2015-Jul-01 23:33S 36°46' E 174°49'5 4.2
2015-Jul-01 22:26S 36°51' E 174°47'0 0.0
2015-Jul-01 21:30S 36°51' E 174°47'0 0.0
2015-Jul-01 19:17S 36°51' E 174°47'5 1.0
2015-Jul-01 14:33S 36°46' E 174°49'4 3.6
2015-Jul-01 13:33S 36°50' E 174°49'2 1.7
2015-Jul-01 12:30S 36°51' E 174°47'0 0.0
2015-Jul-01 11:33S 36°51' E 174°47'0 0.0
2015-Jul-01 10:32S 36°51' E 174°47'3 3.1
2015-Jul-01 09:33S 36°48' E 174°49'3 1.5
2015-Jul-01 07:31S 36°51' E 174°47'0 0.0
2015-Jul-01 06:33S 36°51' E 174°47'0 0.0
2015-Jul-01 05:31S 36°51' E 174°47'0 0.0
2015-Jul-01 04:32S 36°51' E 174°47'0 0.0
2015-Jul-01 03:19S 36°51' E 174°47'0 0.0
2015-Jul-01 02:28S 36°51' E 174°47'0 0.5
2015-Jul-01 01:33S 36°50' E 174°47'4 0.7
2015-Jun-30 19:33S 36°46' E 174°48'4 3.8
2015-Jun-30 18:24S 36°51' E 174°47'2 0.2
2015-Jun-30 07:34S 36°49' E 174°49'5 4.8
2015-Jun-30 06:33S 36°45' E 174°50'4 3.6
2015-Jun-30 05:33S 36°48' E 174°48'3 2.9
2015-Jun-30 04:33S 36°51' E 174°47'0 0.0
2015-Jun-30 03:33S 36°51' E 174°47'0 0.2
2015-Jun-30 02:33S 36°51' E 174°47'0 0.1
2015-Jun-30 01:23S 36°51' E 174°47'0 0.0
2015-Jun-30 00:31S 36°51' E 174°47'1 0.8
2015-Jun-29 23:09S 36°50' E 174°46'1 1.7
2015-Jun-29 22:33S 36°51' E 174°47'0 0.0
2015-Jun-29 21:30S 36°51' E 174°47'0 0.0
2015-Jun-29 20:33S 36°51' E 174°47'0 0.0
2015-Jun-29 19:33S 36°51' E 174°47'0 0.0
2015-Jun-29 18:33S 36°51' E 174°47'4 4.1
2015-Jun-29 17:34S 36°47' E 174°49'4 4.1
2015-Jun-29 16:34S 36°51' E 174°47'3 0.3
2015-Jun-29 07:34S 36°49' E 174°49'1 0.5
2015-Jun-29 06:33S 36°49' E 174°49'2 2.1
2015-Jun-29 05:33S 36°51' E 174°47'2 2.1
2015-Jun-29 04:33S 36°49' E 174°49'2 1.8
2015-Jun-29 03:25S 36°51' E 174°47'0 0.0
2015-Jun-29 02:32S 36°51' E 174°47'0 0.0
2015-Jun-29 01:33S 36°51' E 174°47'0 0.0
2015-Jun-29 00:32S 36°51' E 174°47'0 0.0
2015-Jun-28 23:06S 36°51' E 174°47'0 0.0
2015-Jun-28 22:29S 36°51' E 174°47'0 0.0
2015-Jun-28 21:34S 36°51' E 174°47'0 0.0
2015-Jun-28 20:33S 36°51' E 174°47'0 0.0
2015-Jun-28 19:32S 36°51' E 174°47'0 0.0
2015-Jun-28 18:33S 36°51' E 174°47'0 0.0
2015-Jun-28 17:32S 36°51' E 174°47'0 0.3
2015-Jun-28 16:33S 36°50' E 174°47'4 0.5
2015-Jun-28 09:24S 36°47' E 174°49'4 4.5
2015-Jun-28 08:32S 36°51' E 174°47'0 0.0
2015-Jun-28 07:33S 36°51' E 174°47'0 0.0
2015-Jun-28 06:33S 36°51' E 174°47'0 0.0
2015-Jun-28 05:33S 36°51' E 174°47'0 0.0
2015-Jun-28 04:33S 36°51' E 174°47'0 0.0
2015-Jun-28 03:33S 36°51' E 174°47'0 0.0
2015-Jun-28 02:33S 36°51' E 174°47'0 0.0
2015-Jun-28 01:31S 36°51' E 174°47'0 0.0
2015-Jun-28 00:33S 36°51' E 174°47'0 0.0
2015-Jun-27 23:22S 36°51' E 174°47'2 2.6
2015-Jun-27 22:34S 36°49' E 174°49'2 1.8
2015-Jun-27 21:33S 36°50' E 174°47'3 3.0
2015-Jun-27 20:34S 36°48' E 174°49'3 0.5
2015-Jun-27 13:04S 36°51' E 174°47'4 7.5
2015-Jun-27 12:34S 36°47' E 174°48'4 3.8
2015-Jun-27 11:33S 36°51' E 174°47'2 2.0
2015-Jun-27 10:34S 36°50' E 174°49'2 1.9
2015-Jun-27 09:33S 36°51' E 174°47'0 0.2
2015-Jun-27 08:30S 36°50' E 174°47'0 0.3
2015-Jun-27 07:32S 36°51' E 174°47'4 2.2
2015-Jun-27 05:33S 36°46' E 174°49'3 2.8
2015-Jun-27 04:34S 36°49' E 174°49'4 3.8
2015-Jun-27 03:33S 36°46' E 174°50'6 5.5
2015-Jun-27 02:32S 36°51' E 174°47'0 0.0
2015-Jun-27 01:33S 36°51' E 174°47'0 0.0
2015-Jun-27 00:29S 36°51' E 174°47'1 1.2
2015-Jun-26 23:30S 36°51' E 174°48'1 1.3
2015-Jun-26 22:33S 36°51' E 174°47'6 5.6
2015-Jun-26 21:34S 36°46' E 174°50'5 4.6
2015-Jun-26 20:33S 36°49' E 174°55'7 6.7
2015-Jun-26 19:33S 36°51' E 174°47'0 0.0
2015-Jun-26 18:32S 36°51' E 174°47'0 0.0
2015-Jun-26 17:33S 36°51' E 174°47'0 0.0
2015-Jun-26 16:33S 36°51' E 174°47'0 0.0
2015-Jun-26 15:33S 36°51' E 174°47'0 0.0
2015-Jun-26 14:32S 36°51' E 174°47'1 0.6
2015-Jun-26 13:34S 36°50' E 174°47'3 2.6
2015-Jun-26 12:34S 36°48' E 174°49'3 3.1
2015-Jun-26 11:33S 36°51' E 174°47'4 4.1
2015-Jun-26 10:33S 36°47' E 174°49'2 2.3
2015-Jun-26 09:34S 36°45' E 174°50'6 5.3
2015-Jun-26 08:21S 36°51' E 174°47'0 0.0
2015-Jun-26 07:33S 36°51' E 174°47'2 2.2
2015-Jun-26 06:33S 36°49' E 174°49'2 2.2
2015-Jun-26 05:33S 36°51' E 174°47'0 0.0
2015-Jun-26 04:33S 36°51' E 174°47'0 0.0
2015-Jun-26 03:31S 36°51' E 174°47'0 0.0
2015-Jun-26 02:33S 36°51' E 174°47'0 0.0
2015-Jun-26 01:33S 36°51' E 174°47'0 0.0
2015-Jun-25 23:24S 36°51' E 174°47'0 0.4
2015-Jun-25 22:30S 36°50' E 174°47'4 4.7
2015-Jun-25 21:33S 36°46' E 174°49'0 0.4
2015-Jun-25 20:34S 36°46' E 174°49'5 4.8
2015-Jun-25 19:33S 36°51' E 174°47'1 0.5
2015-Jun-25 17:33S 36°50' E 174°48'2 0.3
2015-Jun-25 10:33S 36°48' E 174°49'3 2.7
2015-Jun-25 09:31S 36°51' E 174°47'6 6.4
2015-Jun-25 08:33S 36°45' E 174°50'5 5.0
2015-Jun-25 07:33S 36°50' E 174°49'3 0.8
2015-Jun-25 03:33S 36°47' E 174°49'4 4.2
2015-Jun-25 02:33S 36°51' E 174°47'0 0.0
2015-Jun-25 01:33S 36°51' E 174°47'0 0.0
2015-Jun-25 00:33S 36°51' E 174°47'0 0.0
2015-Jun-24 23:31S 36°51' E 174°47'1 0.9
2015-Jun-24 22:14S 36°51' E 174°48'1 1.8
2015-Jun-24 21:33S 36°51' E 174°47'7 7.5
2015-Jun-24 20:33S 36°48' E 174°56'  

Dump ship's entire track history